createdAt,value
2023-02-06T00:01:56.507Z,-4.40
2023-02-06T00:04:24.641Z,-4.40
2023-02-06T00:06:55.494Z,-4.40
2023-02-06T00:09:24.486Z,-4.40
2023-02-06T00:11:57.079Z,-4.30
2023-02-06T00:14:25.339Z,-4.40
2023-02-06T00:16:54.366Z,-4.40
2023-02-06T00:19:23.206Z,-4.40
2023-02-06T00:21:52.498Z,-4.40
2023-02-06T00:24:24.552Z,-4.40
2023-02-06T00:26:53.456Z,-4.30
2023-02-06T00:29:21.795Z,-4.20
2023-02-06T00:31:50.121Z,-4.20
2023-02-06T00:34:18.320Z,-4.10
2023-02-06T00:36:47.431Z,-4.10
2023-02-06T00:39:18.827Z,-4.10
2023-02-06T00:41:50.973Z,-4.00
2023-02-06T00:44:20.391Z,-4.00
2023-02-06T00:46:51.478Z,-4.00
2023-02-06T00:49:22.344Z,-4.00
2023-02-06T00:51:53.535Z,-4.00
2023-02-06T00:54:21.903Z,-4.00
2023-02-06T00:56:51.499Z,-4.00
2023-02-06T00:59:23.437Z,-4.00
2023-02-06T01:01:52.498Z,-4.10
2023-02-06T01:04:20.639Z,-4.10
2023-02-06T01:06:49.544Z,-4.10
2023-02-06T01:09:18.369Z,-4.00
2023-02-06T01:11:47.513Z,-4.00
2023-02-06T01:14:19.321Z,-4.00
2023-02-06T01:16:48.522Z,-3.90
2023-02-06T01:19:16.685Z,-3.90
2023-02-06T01:21:45.515Z,-3.90
2023-02-06T01:24:13.651Z,-4.00
2023-02-06T01:26:46.531Z,-4.00
2023-02-06T01:29:15.154Z,-4.00
2023-02-06T01:31:45.626Z,-4.00
2023-02-06T01:34:14.085Z,-4.00
2023-02-06T01:36:42.344Z,-4.10
2023-02-06T01:39:14.560Z,-4.00
2023-02-06T01:41:43.520Z,-4.10
2023-02-06T01:44:19.901Z,-4.10
2023-02-06T01:46:53.003Z,-4.20
2023-02-06T01:49:27.571Z,-4.20
2023-02-06T01:52:05.158Z,-4.20
2023-02-06T01:54:37.433Z,-4.10
2023-02-06T01:57:09.598Z,-4.10
2023-02-06T01:59:39.318Z,-4.20
2023-02-06T02:02:14.565Z,-4.20
2023-02-06T02:04:43.567Z,-4.20
2023-02-06T02:07:17.518Z,-4.20
2023-02-06T02:09:49.935Z,-4.10
2023-02-06T02:12:19.367Z,-4.10
2023-02-06T02:14:49.819Z,-4.10
2023-02-06T02:17:32.225Z,-4.20
2023-02-06T02:20:34.523Z,-4.20
2023-02-06T02:23:13.160Z,-4.20
2023-02-06T02:26:24.736Z,-4.20
2023-02-06T02:29:18.336Z,-4.20
2023-02-06T02:32:39.498Z,-4.30
2023-02-06T02:35:30.586Z,-4.30
2023-02-06T02:38:19.780Z,-4.50
2023-02-06T02:40:57.558Z,-4.40
2023-02-06T02:43:36.393Z,-4.50
2023-02-06T02:46:10.625Z,-4.50
2023-02-06T02:48:43.004Z,-4.60
2023-02-06T02:51:13.650Z,-4.60
2023-02-06T02:53:42.826Z,-4.60
2023-02-06T02:56:20.552Z,-4.60
2023-02-06T02:58:54.024Z,-4.60
2023-02-06T03:01:27.553Z,-4.70
2023-02-06T03:04:00.369Z,-4.70
2023-02-06T03:07:01.311Z,-4.70
2023-02-06T03:09:44.289Z,-4.70
2023-02-06T03:12:21.221Z,-4.70
2023-02-06T03:14:56.371Z,-4.80
2023-02-06T03:17:33.543Z,-4.80
2023-02-06T03:20:05.392Z,-4.90
2023-02-06T03:22:37.084Z,-4.90
2023-02-06T03:25:10.743Z,-4.90
2023-02-06T03:27:45.730Z,-4.90
2023-02-06T03:30:18.564Z,-4.90
2023-02-06T03:32:51.995Z,-4.90
2023-02-06T03:35:24.531Z,-4.90
2023-02-06T03:37:55.353Z,-4.90
2023-02-06T03:40:29.511Z,-4.80
2023-02-06T03:43:00.244Z,-4.80
2023-02-06T03:45:32.064Z,-4.80
2023-02-06T03:48:04.268Z,-4.80
2023-02-06T03:50:36.020Z,-4.80
2023-02-06T03:53:07.368Z,-4.80
2023-02-06T03:55:42.535Z,-4.70
2023-02-06T03:58:15.401Z,-4.80
2023-02-06T04:00:49.186Z,-4.70
2023-02-06T04:03:20.057Z,-4.70
2023-02-06T04:05:52.136Z,-4.70
2023-02-06T04:08:21.636Z,-4.70
2023-02-06T04:10:50.607Z,-4.70
2023-02-06T04:13:18.818Z,-4.80
2023-02-06T04:15:47.528Z,-4.80
2023-02-06T04:18:20.134Z,-4.80
2023-02-06T04:20:48.580Z,-4.70
2023-02-06T04:23:16.724Z,-4.70
2023-02-06T04:25:46.583Z,-4.70
2023-02-06T04:28:15.102Z,-4.80
2023-02-06T04:30:43.726Z,-4.70
2023-02-06T04:33:15.374Z,-4.80
2023-02-06T04:35:45.185Z,-4.80
2023-02-06T04:38:13.551Z,-4.80
2023-02-06T04:40:42.267Z,-4.80
2023-02-06T04:43:11.788Z,-4.90
2023-02-06T04:45:43.568Z,-4.90
2023-02-06T04:48:11.836Z,-4.90
2023-02-06T04:50:40.556Z,-4.90
2023-02-06T04:53:09.380Z,-4.90
2023-02-06T04:55:37.888Z,-4.80
2023-02-06T04:58:06.246Z,-4.80
2023-02-06T05:00:37.973Z,-4.80
2023-02-06T05:03:07.149Z,-4.80
2023-02-06T05:05:35.752Z,-4.80
2023-02-06T05:08:04.012Z,-4.80
2023-02-06T05:10:32.556Z,-4.70
2023-02-06T05:13:00.766Z,-4.70
2023-02-06T05:15:29.527Z,-4.70
2023-02-06T05:17:59.975Z,-4.70
2023-02-06T05:20:30.376Z,-4.70
2023-02-06T05:22:58.552Z,-4.60
2023-02-06T05:25:26.783Z,-4.60
2023-02-06T05:27:55.295Z,-4.60
2023-02-06T05:30:24.550Z,-4.60
2023-02-06T05:32:52.871Z,-4.60
2023-02-06T05:35:25.100Z,-4.60
2023-02-06T05:37:53.300Z,-4.60
2023-02-06T05:40:23.269Z,-4.70
2023-02-06T05:42:52.622Z,-4.80
2023-02-06T05:45:20.747Z,-4.80
2023-02-06T05:47:53.782Z,-4.90
2023-02-06T05:50:22.416Z,-5.00
2023-02-06T05:52:51.908Z,-5.10
2023-02-06T05:55:23.070Z,-5.10
2023-02-06T05:57:51.244Z,-5.20
2023-02-06T06:00:19.891Z,-5.30
2023-02-06T06:02:48.053Z,-5.30
2023-02-06T06:05:17.616Z,-5.40
2023-02-06T06:07:45.883Z,-5.40
2023-02-06T06:10:16.075Z,-5.40
2023-02-06T06:12:47.526Z,-5.40
2023-02-06T06:15:16.599Z,-5.30
2023-02-06T06:17:44.747Z,-5.30
2023-02-06T06:20:13.343Z,-5.30
2023-02-06T06:22:41.746Z,-5.30
2023-02-06T06:25:10.007Z,-5.30
2023-02-06T06:27:42.054Z,-5.40
2023-02-06T06:30:11.797Z,-5.40
2023-02-06T06:32:40.051Z,-5.40
2023-02-06T06:35:09.093Z,-5.50
2023-02-06T06:37:37.293Z,-5.40
2023-02-06T06:40:08.420Z,-5.40
2023-02-06T06:42:37.097Z,-5.50
2023-02-06T06:45:08.426Z,-5.60
2023-02-06T06:47:36.570Z,-5.70
2023-02-06T06:50:05.132Z,-5.70
2023-02-06T06:52:33.358Z,-5.80
2023-02-06T06:55:05.553Z,-5.80
2023-02-06T06:57:34.240Z,-5.80
2023-02-06T07:00:02.456Z,-5.80
2023-02-06T07:02:36.286Z,-5.80
2023-02-06T07:05:04.717Z,-5.70
2023-02-06T07:07:33.651Z,-5.70
2023-02-06T07:10:02.027Z,-5.60
2023-02-06T07:12:30.594Z,-5.50
2023-02-06T07:14:59.416Z,-5.40
2023-02-06T07:17:27.659Z,-5.40
2023-02-06T07:20:01.332Z,-5.30
2023-02-06T07:22:29.640Z,-5.30
2023-02-06T07:24:57.926Z,-5.20
2023-02-06T07:27:26.256Z,-5.20
2023-02-06T07:29:54.405Z,-5.10
2023-02-06T07:32:22.741Z,-5.10
2023-02-06T07:34:50.992Z,-5.00
2023-02-06T07:37:21.568Z,-4.90
2023-02-06T07:39:49.675Z,-4.90
2023-02-06T07:42:18.909Z,-4.80
2023-02-06T07:44:56.313Z,-4.70
2023-02-06T07:47:25.600Z,-4.60
2023-02-06T07:49:54.438Z,-4.60
2023-02-06T07:52:24.194Z,-4.50
2023-02-06T07:54:55.353Z,-4.40
2023-02-06T07:57:25.595Z,-4.30
2023-02-06T07:59:54.588Z,-4.30
2023-02-06T08:02:22.871Z,-4.30
2023-02-06T08:04:51.010Z,-4.30
2023-02-06T08:07:20.605Z,-4.30
2023-02-06T08:09:50.145Z,-4.20
2023-02-06T08:12:19.418Z,-4.10
2023-02-06T08:14:47.730Z,-4.10
2023-02-06T08:17:17.483Z,-4.00
2023-02-06T08:19:47.419Z,-4.00
2023-02-06T08:22:16.592Z,-3.90
2023-02-06T08:24:47.399Z,-3.80
2023-02-06T08:27:17.602Z,-3.80
2023-02-06T08:29:45.827Z,-3.80
2023-02-06T08:32:14.584Z,-3.80
2023-02-06T08:34:42.819Z,-3.80
2023-02-06T08:37:13.759Z,-3.80
2023-02-06T08:39:42.590Z,-3.60
2023-02-06T08:42:11.066Z,-3.70
2023-02-06T08:44:41.703Z,-3.80
2023-02-06T08:47:10.773Z,-3.90
2023-02-06T08:49:41.725Z,-3.90
2023-02-06T08:52:09.902Z,-3.90
2023-02-06T08:54:39.041Z,-3.80
2023-02-06T08:57:07.754Z,-3.80
2023-02-06T08:59:35.918Z,-3.70
2023-02-06T09:02:08.257Z,-3.50
2023-02-06T09:04:38.448Z,-3.40
2023-02-06T09:07:07.012Z,-3.30
2023-02-06T09:09:35.603Z,-3.20
2023-02-06T09:12:04.115Z,-3.00
2023-02-06T09:14:33.028Z,-2.80
2023-02-06T09:17:03.432Z,-2.60
2023-02-06T09:19:32.975Z,-2.40
2023-02-06T09:22:01.597Z,-2.30
2023-02-06T09:24:32.302Z,-2.20
2023-02-06T09:27:01.158Z,-2.10
2023-02-06T09:29:33.476Z,-2.10
2023-02-06T09:32:02.624Z,-1.90
2023-02-06T09:34:32.195Z,-1.90
2023-02-06T09:37:03.618Z,-1.80
2023-02-06T09:39:35.252Z,-1.70
2023-02-06T09:42:08.599Z,-1.60
2023-02-06T09:44:42.602Z,-1.60
2023-02-06T09:47:25.420Z,-1.50
2023-02-06T09:49:58.488Z,-1.40
2023-02-06T09:52:46.635Z,-1.30
2023-02-06T09:55:23.380Z,-1.30
2023-02-06T09:58:03.637Z,-1.20
2023-02-06T10:00:41.574Z,-1.10
2023-02-06T10:03:33.694Z,-1.00
2023-02-06T10:06:16.576Z,-0.80
2023-02-06T10:08:54.554Z,-0.70
2023-02-06T10:11:32.215Z,-0.60
2023-02-06T10:14:06.566Z,-0.60
2023-02-06T10:16:44.159Z,-0.50
2023-02-06T10:19:18.831Z,-0.50
2023-02-06T10:21:54.670Z,-0.40
2023-02-06T10:24:33.576Z,-0.20
2023-02-06T10:27:05.642Z,-0.20
2023-02-06T10:29:36.486Z,-0.40
2023-02-06T10:32:27.085Z,-0.50
2023-02-06T10:35:17.566Z,-0.60
2023-02-06T10:38:04.986Z,-0.60
2023-02-06T10:40:42.630Z,-0.60
2023-02-06T10:43:18.985Z,-0.60
2023-02-06T10:45:53.619Z,-0.60
2023-02-06T10:48:29.361Z,-0.50
2023-02-06T10:51:05.720Z,-0.50
2023-02-06T10:53:38.549Z,-0.50
2023-02-06T10:56:10.760Z,-0.50
2023-02-06T10:58:42.221Z,-0.40
2023-02-06T11:01:25.485Z,-0.40
2023-02-06T11:03:59.956Z,-0.40
2023-02-06T11:06:31.073Z,-0.30
2023-02-06T11:09:00.708Z,-0.20
2023-02-06T11:11:31.018Z,-0.20
2023-02-06T11:14:05.477Z,-0.20
2023-02-06T11:16:38.228Z,-0.20
2023-02-06T11:19:17.531Z,-0.10
2023-02-06T11:21:54.984Z,-0.10
2023-02-06T11:24:26.236Z,-0.20
2023-02-06T11:26:59.651Z,-0.10
2023-02-06T11:29:31.838Z,0.00
2023-02-06T11:32:03.641Z,0.20
2023-02-06T11:34:34.132Z,0.30
2023-02-06T11:37:04.638Z,0.40
2023-02-06T11:39:35.887Z,0.40
2023-02-06T11:42:07.659Z,0.30
2023-02-06T11:44:44.133Z,0.30
2023-02-06T11:47:33.338Z,0.30
2023-02-06T11:50:24.702Z,0.20
2023-02-06T11:53:01.548Z,0.20
2023-02-06T11:55:34.383Z,0.20
2023-02-06T11:58:07.702Z,0.20
2023-02-06T12:00:38.249Z,0.20
2023-02-06T12:03:08.180Z,0.30
2023-02-06T12:05:43.670Z,0.30
2023-02-06T12:08:15.730Z,0.30
2023-02-06T12:10:58.653Z,0.30
2023-02-06T12:13:31.257Z,0.20
2023-02-06T12:16:03.648Z,0.20
2023-02-06T12:18:38.005Z,0.30
2023-02-06T12:21:13.664Z,0.50
2023-02-06T12:23:45.655Z,0.50
2023-02-06T12:26:19.531Z,0.60
2023-02-06T12:28:57.672Z,0.70
2023-02-06T12:31:32.761Z,0.70
2023-02-06T12:34:12.527Z,0.70
2023-02-06T12:36:53.493Z,0.70
2023-02-06T12:39:24.548Z,0.70
2023-02-06T12:42:20.672Z,0.70
2023-02-06T12:44:55.699Z,0.80
2023-02-06T12:47:30.712Z,0.90
2023-02-06T12:50:05.684Z,0.90
2023-02-06T12:52:40.691Z,1.00
2023-02-06T12:55:17.734Z,1.00
2023-02-06T12:57:49.519Z,1.10
2023-02-06T13:00:56.067Z,1.10
2023-02-06T13:03:33.984Z,1.00
2023-02-06T13:06:12.342Z,1.00
2023-02-06T13:08:45.189Z,0.90
2023-02-06T13:11:28.618Z,0.90
2023-02-06T13:14:05.648Z,0.90
2023-02-06T13:16:59.682Z,1.00
2023-02-06T13:19:33.768Z,1.00
2023-02-06T13:22:45.134Z,1.00
2023-02-06T13:25:49.805Z,1.00
2023-02-06T13:29:05.694Z,1.20
2023-02-06T13:31:35.894Z,1.30
2023-02-06T13:34:18.246Z,1.30
2023-02-06T13:36:57.545Z,1.20
2023-02-06T13:39:29.476Z,1.10
2023-02-06T13:42:06.778Z,1.10
2023-02-06T13:44:37.626Z,1.00
2023-02-06T13:47:47.722Z,1.00
2023-02-06T13:50:46.718Z,0.90
2023-02-06T13:53:33.594Z,0.90
2023-02-06T13:56:15.677Z,0.80
2023-02-06T13:58:49.516Z,0.80
2023-02-06T14:01:22.894Z,0.70
2023-02-06T14:03:54.565Z,0.70
2023-02-06T14:07:01.521Z,0.70
2023-02-06T14:09:44.068Z,0.60
2023-02-06T14:12:35.391Z,0.60
2023-02-06T14:15:20.684Z,0.60
2023-02-06T14:18:08.982Z,0.50
2023-02-06T14:20:50.672Z,0.40
2023-02-06T14:23:34.518Z,0.40
2023-02-06T14:26:23.670Z,0.30
2023-02-06T14:29:02.235Z,0.40
2023-02-06T14:31:47.440Z,0.50
2023-02-06T14:34:37.561Z,0.50
2023-02-06T14:37:28.631Z,0.50
2023-02-06T14:40:04.796Z,0.50
2023-02-06T14:42:36.953Z,0.50
2023-02-06T14:45:11.905Z,0.30
2023-02-06T14:47:42.710Z,0.20
2023-02-06T14:50:20.785Z,0.10
2023-02-06T14:52:54.648Z,0.00
2023-02-06T14:55:31.556Z,0.00
2023-02-06T14:58:00.729Z,-0.10
2023-02-06T15:00:29.744Z,-0.10
2023-02-06T15:03:15.095Z,-0.10
2023-02-06T15:05:43.882Z,-0.10
2023-02-06T15:08:19.949Z,-0.10
2023-02-06T15:11:01.462Z,-0.10
2023-02-06T15:13:35.019Z,-0.10
2023-02-06T15:16:05.527Z,-0.10
2023-02-06T15:18:36.025Z,-0.20
2023-02-06T15:21:08.646Z,-0.40
2023-02-06T15:23:54.638Z,-0.40
2023-02-06T15:26:43.264Z,-0.60
2023-02-06T15:29:20.504Z,-0.70
2023-02-06T15:31:49.816Z,-0.70
2023-02-06T15:34:19.456Z,-0.80
2023-02-06T15:36:47.719Z,-0.80
2023-02-06T15:39:18.945Z,-0.80
2023-02-06T15:41:52.205Z,-0.90
2023-02-06T15:44:28.643Z,-0.80
2023-02-06T15:46:59.759Z,-0.90
2023-02-06T15:49:40.264Z,-0.90
2023-02-06T15:52:08.928Z,-1.10
2023-02-06T15:54:42.657Z,-1.10
2023-02-06T15:57:27.755Z,-1.20
2023-02-06T15:59:56.892Z,-1.20
2023-02-06T16:02:31.500Z,-1.30
2023-02-06T16:05:00.113Z,-1.30
2023-02-06T16:07:31.845Z,-1.40
2023-02-06T16:10:06.121Z,-1.40
2023-02-06T16:12:37.408Z,-1.40
2023-02-06T16:15:26.465Z,-1.50
2023-02-06T16:17:55.580Z,-1.50
2023-02-06T16:20:33.209Z,-1.50
2023-02-06T16:23:24.301Z,-1.50
2023-02-06T16:26:04.355Z,-1.50
2023-02-06T16:28:32.661Z,-1.50
2023-02-06T16:31:04.458Z,-1.50
2023-02-06T16:33:40.367Z,-1.60
2023-02-06T16:36:11.515Z,-1.60
2023-02-06T16:38:39.792Z,-1.70
2023-02-06T16:44:01.832Z,-1.70
2023-02-06T16:46:30.756Z,-1.70
2023-02-06T16:49:00.649Z,-1.80
2023-02-06T16:51:33.184Z,-1.80
2023-02-06T16:54:01.477Z,-1.90
2023-02-06T16:56:29.683Z,-1.90
2023-02-06T16:58:57.959Z,-1.90
2023-02-06T17:01:29.615Z,-2.00
2023-02-06T17:03:59.498Z,-2.00
2023-02-06T17:06:29.883Z,-2.00
2023-02-06T17:09:09.106Z,-1.90
2023-02-06T17:11:39.680Z,-2.00
2023-02-06T17:14:07.992Z,-2.00
2023-02-06T17:16:40.843Z,-2.00
2023-02-06T17:19:09.046Z,-2.00
2023-02-06T17:21:38.198Z,-2.00
2023-02-06T17:24:07.320Z,-2.10
2023-02-06T17:26:36.438Z,-2.10
2023-02-06T17:29:05.295Z,-2.10
2023-02-06T17:31:33.600Z,-2.20
2023-02-06T17:34:03.205Z,-2.20
2023-02-06T17:36:33.161Z,-2.20
2023-02-06T17:39:02.153Z,-2.20
2023-02-06T17:41:31.358Z,-2.20
2023-02-06T17:44:00.264Z,-2.30
2023-02-06T17:46:31.488Z,-2.20
2023-02-06T17:48:59.665Z,-2.30
2023-02-06T17:51:29.424Z,-2.30
2023-02-06T17:53:57.649Z,-2.30
2023-02-06T17:56:27.445Z,-2.30
2023-02-06T17:58:55.605Z,-2.30
2023-02-06T18:01:25.531Z,-2.30
2023-02-06T18:03:53.961Z,-2.40
2023-02-06T18:06:23.435Z,-2.40
2023-02-06T18:08:53.087Z,-2.30
2023-02-06T18:11:25.447Z,-2.30
2023-02-06T18:13:53.805Z,-2.30
2023-02-06T18:16:24.196Z,-2.40
2023-02-06T18:18:52.704Z,-2.30
2023-02-06T18:21:24.523Z,-2.40
2023-02-06T18:23:57.254Z,-2.40
2023-02-06T18:26:27.326Z,-2.50
2023-02-06T18:28:56.290Z,-2.60
2023-02-06T18:31:27.506Z,-2.60
2023-02-06T18:33:56.444Z,-2.50
2023-02-06T18:36:25.332Z,-2.60
2023-02-06T18:38:54.293Z,-2.60
2023-02-06T18:41:41.736Z,-2.60
2023-02-06T18:44:11.436Z,-2.60
2023-02-06T18:46:40.311Z,-2.60
2023-02-06T18:49:08.606Z,-2.60
2023-02-06T18:51:36.769Z,-2.60
2023-02-06T18:54:05.488Z,-2.60
2023-02-06T18:56:35.726Z,-2.60
2023-02-06T18:59:08.027Z,-2.60
2023-02-06T19:01:36.291Z,-2.60
2023-02-06T19:04:04.695Z,-2.60
2023-02-06T19:06:36.564Z,-2.60
2023-02-06T19:09:07.131Z,-2.60
2023-02-06T19:11:37.815Z,-2.60
2023-02-06T19:14:07.562Z,-2.50
2023-02-06T19:16:40.369Z,-2.60
2023-02-06T19:19:08.748Z,-2.60
2023-02-06T19:21:37.407Z,-2.50
2023-02-06T19:24:06.463Z,-2.60
2023-02-06T19:26:36.227Z,-2.60
2023-02-06T19:29:04.500Z,-2.50
2023-02-06T19:31:39.144Z,-2.50
2023-02-06T19:34:08.196Z,-2.50
2023-02-06T19:36:36.736Z,-2.50
2023-02-06T19:39:07.357Z,-2.50
2023-02-06T19:41:37.354Z,-2.50
2023-02-06T19:44:08.034Z,-2.60
2023-02-06T19:46:36.569Z,-2.60
2023-02-06T19:49:08.608Z,-2.60
2023-02-06T19:51:41.632Z,-2.60
2023-02-06T19:54:09.994Z,-2.60
2023-02-06T19:56:42.704Z,-2.60
2023-02-06T19:59:18.212Z,-2.60
2023-02-06T20:01:46.909Z,-2.60
2023-02-06T20:04:15.461Z,-2.70
2023-02-06T20:06:44.945Z,-2.70
2023-02-06T20:09:14.698Z,-2.70
2023-02-06T20:11:44.942Z,-2.80
2023-02-06T20:14:13.503Z,-2.80
2023-02-06T20:16:43.506Z,-2.80
2023-02-06T20:19:14.297Z,-2.80
2023-02-06T20:21:47.568Z,-2.80
2023-02-06T20:24:18.650Z,-2.80
2023-02-06T20:26:56.097Z,-2.80
2023-02-06T20:29:27.679Z,-2.80
2023-02-06T20:31:57.057Z,-2.70
2023-02-06T20:34:28.802Z,-2.70
2023-02-06T20:36:58.076Z,-2.80
2023-02-06T20:39:28.743Z,-2.80
2023-02-06T20:41:58.392Z,-2.80
2023-02-06T20:44:29.783Z,-2.90
2023-02-06T20:46:58.534Z,-2.90
2023-02-06T20:49:28.890Z,-2.90
2023-02-06T20:51:57.453Z,-3.00
2023-02-06T20:54:26.240Z,-3.00
2023-02-06T20:56:57.575Z,-3.00
2023-02-06T20:59:27.293Z,-3.00
2023-02-06T21:01:56.701Z,-3.00
2023-02-06T21:04:25.697Z,-3.00
2023-02-06T21:06:54.131Z,-3.00
2023-02-06T21:09:22.243Z,-3.00
2023-02-06T21:11:54.111Z,-3.10
2023-02-06T21:14:22.485Z,-3.10
2023-02-06T21:16:52.337Z,-3.00
2023-02-06T21:19:22.365Z,-3.00
2023-02-06T21:21:53.458Z,-3.00
2023-02-06T21:24:22.649Z,-3.00
2023-02-06T21:26:50.928Z,-3.00
2023-02-06T21:29:19.120Z,-3.00
2023-02-06T21:31:48.553Z,-3.00
2023-02-06T21:34:21.351Z,-3.00
2023-02-06T21:36:51.198Z,-2.90
2023-02-06T21:39:22.348Z,-3.00
2023-02-06T21:41:53.727Z,-3.00
2023-02-06T21:44:26.531Z,-3.00
2023-02-06T21:46:56.168Z,-3.00
2023-02-06T21:49:27.349Z,-3.10
2023-02-06T21:51:59.601Z,-3.10
2023-02-06T21:54:29.339Z,-3.00
2023-02-06T21:56:58.748Z,-3.00
2023-02-06T21:59:26.923Z,-3.10
2023-02-06T22:01:55.583Z,-3.10
2023-02-06T22:04:25.331Z,-3.20
2023-02-06T22:06:54.210Z,-3.20
2023-02-06T22:09:23.013Z,-3.30
2023-02-06T22:11:51.534Z,-3.30
2023-02-06T22:14:20.035Z,-3.30
2023-02-06T22:16:48.534Z,-3.30
2023-02-06T22:19:20.672Z,-3.30
2023-02-06T22:21:50.599Z,-3.40
2023-02-06T22:24:19.334Z,-3.50
2023-02-06T22:26:48.713Z,-3.40
2023-02-06T22:29:20.288Z,-3.40
2023-02-06T22:31:50.103Z,-3.40
2023-02-06T22:34:21.565Z,-3.30
2023-02-06T22:36:52.074Z,-3.30
2023-02-06T22:39:23.643Z,-3.30
2023-02-06T22:41:52.119Z,-3.20
2023-02-06T22:44:21.732Z,-3.20
2023-02-06T22:46:52.550Z,-3.10
2023-02-06T22:49:27.604Z,-3.10
2023-02-06T22:51:57.956Z,-3.00
2023-02-06T22:54:26.376Z,-3.00
2023-02-06T22:56:54.624Z,-3.10
2023-02-06T22:59:27.105Z,-3.20
2023-02-06T23:01:57.750Z,-3.10
2023-02-06T23:04:32.358Z,-3.10
2023-02-06T23:07:02.904Z,-3.10
2023-02-06T23:09:34.351Z,-3.10
2023-02-06T23:12:03.109Z,-3.10
2023-02-06T23:14:32.629Z,-3.00
2023-02-06T23:17:03.996Z,-3.10
2023-02-06T23:19:32.515Z,-3.10
2023-02-06T23:22:03.527Z,-3.10
2023-02-06T23:24:31.933Z,-3.10
2023-02-06T23:27:00.540Z,-3.10
2023-02-06T23:29:29.533Z,-3.10
2023-02-06T23:31:59.581Z,-3.20
2023-02-06T23:34:28.488Z,-3.20
2023-02-06T23:36:57.502Z,-3.20
2023-02-06T23:39:27.378Z,-3.30
2023-02-06T23:41:57.404Z,-3.30
2023-02-06T23:44:25.903Z,-3.30
2023-02-06T23:46:54.616Z,-3.30
2023-02-06T23:49:23.574Z,-3.30
2023-02-06T23:51:53.494Z,-3.20
2023-02-06T23:54:21.625Z,-3.20
2023-02-06T23:56:56.634Z,-3.10
2023-02-06T23:59:24.790Z,-3.10
